createdAt,value
2023-03-05T00:01:32.098Z,100594.00
2023-03-05T00:04:06.443Z,100596.00
2023-03-05T00:06:40.048Z,100549.00
2023-03-05T00:09:13.593Z,100587.00
2023-03-05T00:11:47.043Z,100582.00
2023-03-05T00:14:23.501Z,100588.00
2023-03-05T00:16:57.138Z,100571.00
2023-03-05T00:19:30.006Z,100582.00
2023-03-05T00:22:02.965Z,100571.00
2023-03-05T00:24:36.011Z,100569.00
2023-03-05T00:27:09.156Z,100570.00
2023-03-05T00:29:42.135Z,100572.00
2023-03-05T00:32:15.644Z,100566.00
2023-03-05T00:34:48.661Z,100569.00
2023-03-05T00:37:21.623Z,100567.00
2023-03-05T00:39:54.893Z,100566.00
2023-03-05T00:42:27.907Z,100572.00
2023-03-05T00:45:01.022Z,100555.00
2023-03-05T00:47:34.047Z,100564.00
2023-03-05T00:50:07.434Z,100563.00
2023-03-05T00:52:40.341Z,100565.00
2023-03-05T00:55:13.721Z,100559.00
2023-03-05T00:57:46.678Z,100557.00
2023-03-05T01:00:20.654Z,100552.00
2023-03-05T01:02:53.691Z,100555.00
2023-03-05T01:05:26.833Z,100553.00
2023-03-05T01:08:00.278Z,100555.00
2023-03-05T01:10:33.391Z,100552.00
2023-03-05T01:13:06.518Z,100555.00
2023-03-05T01:15:39.674Z,100548.00
2023-03-05T01:18:12.956Z,100546.00
2023-03-05T01:20:45.940Z,100549.00
2023-03-05T01:23:18.832Z,100545.00
2023-03-05T01:25:59.180Z,100549.00
2023-03-05T01:28:32.268Z,100543.00
2023-03-05T01:31:06.075Z,100554.00
2023-03-05T01:33:39.110Z,100546.00
2023-03-05T01:36:18.703Z,100551.00
2023-03-05T01:38:56.609Z,100542.00
2023-03-05T01:41:29.493Z,100534.00
2023-03-05T01:44:03.493Z,100525.00
2023-03-05T01:46:38.274Z,100532.00
2023-03-05T01:49:19.865Z,100523.00
2023-03-05T01:52:04.661Z,100513.00
2023-03-05T01:54:48.349Z,100523.00
2023-03-05T01:57:23.224Z,100516.00
2023-03-05T01:59:58.272Z,100518.00
2023-03-05T02:02:31.126Z,100501.00
2023-03-05T02:05:09.061Z,100514.00
2023-03-05T02:07:43.629Z,100502.00
2023-03-05T02:10:24.940Z,100502.00
2023-03-05T02:12:59.742Z,100499.00
2023-03-05T02:15:34.001Z,100499.00
2023-03-05T02:18:08.024Z,100496.00
2023-03-05T02:20:59.734Z,100495.00
2023-03-05T02:23:36.097Z,100486.00
2023-03-05T02:26:10.843Z,100486.00
2023-03-05T02:28:48.483Z,100488.00
2023-03-05T02:31:29.252Z,100490.00
2023-03-05T02:34:02.316Z,100491.00
2023-03-05T02:36:35.366Z,100485.00
2023-03-05T02:39:08.274Z,100490.00
2023-03-05T02:41:41.380Z,100489.00
2023-03-05T02:44:17.426Z,100480.00
2023-03-05T02:46:50.579Z,100483.00
2023-03-05T02:49:23.679Z,100487.00
2023-03-05T02:51:56.742Z,100486.00
2023-03-05T02:54:29.721Z,100475.00
2023-03-05T02:57:02.955Z,100475.00
2023-03-05T02:59:36.010Z,100479.00
2023-03-05T03:02:09.658Z,100474.00
2023-03-05T03:04:42.596Z,100465.00
2023-03-05T03:07:20.776Z,100476.00
2023-03-05T03:09:53.686Z,100467.00
2023-03-05T03:12:26.725Z,100464.00
2023-03-05T03:14:59.706Z,100462.00
2023-03-05T03:17:33.180Z,100455.00
2023-03-05T03:20:06.654Z,100458.00
2023-03-05T03:22:39.577Z,100454.00
2023-03-05T03:25:13.446Z,100452.00
2023-03-05T03:27:46.403Z,100452.00
2023-03-05T03:30:19.856Z,100449.00
2023-03-05T03:32:54.032Z,100456.00
2023-03-05T03:35:26.961Z,100456.00
2023-03-05T03:37:59.857Z,100451.00
2023-03-05T03:40:32.743Z,100440.00
2023-03-05T03:43:05.753Z,100447.00
2023-03-05T03:45:38.910Z,100443.00
2023-03-05T03:48:11.938Z,100436.00
2023-03-05T03:50:45.590Z,100446.00
2023-03-05T03:53:19.414Z,100438.00
2023-03-05T03:55:56.373Z,100442.00
2023-03-05T03:58:29.400Z,100447.00
2023-03-05T04:01:02.231Z,100440.00
2023-03-05T04:03:39.365Z,100435.00
2023-03-05T04:06:12.473Z,100442.00
2023-03-05T04:08:45.563Z,100435.00
2023-03-05T04:11:18.490Z,100432.00
2023-03-05T04:13:51.530Z,100439.00
2023-03-05T04:16:24.488Z,100443.00
2023-03-05T04:18:58.114Z,100438.00
2023-03-05T04:21:31.531Z,100439.00
2023-03-05T04:24:04.321Z,100449.00
2023-03-05T04:26:37.223Z,100449.00
2023-03-05T04:29:10.068Z,100444.00
2023-03-05T04:31:43.564Z,100456.00
2023-03-05T04:34:16.820Z,100453.00
2023-03-05T04:36:49.822Z,100452.00
2023-03-05T04:39:23.963Z,100457.00
2023-03-05T04:41:57.140Z,100449.00
2023-03-05T04:44:30.142Z,100447.00
2023-03-05T04:47:02.913Z,100454.00
2023-03-05T04:49:35.843Z,100454.00
2023-03-05T04:52:08.827Z,100458.00
2023-03-05T04:54:41.766Z,100469.00
2023-03-05T04:57:14.607Z,100473.00
2023-03-05T04:59:47.577Z,100470.00
2023-03-05T05:02:21.049Z,100477.00
2023-03-05T05:05:00.899Z,100475.00
2023-03-05T05:07:40.441Z,100476.00
2023-03-05T05:10:14.586Z,100477.00
2023-03-05T05:12:50.122Z,100479.00
2023-03-05T05:15:23.968Z,100481.00
2023-03-05T05:17:56.915Z,100494.00
2023-03-05T05:20:30.629Z,100484.00
2023-03-05T05:23:04.893Z,100490.00
2023-03-05T05:25:37.877Z,100492.00
2023-03-05T05:28:13.826Z,100488.00
2023-03-05T05:30:46.904Z,100483.00
2023-03-05T05:33:19.766Z,100494.00
2023-03-05T05:35:53.001Z,100504.00
2023-03-05T05:38:26.169Z,100500.00
2023-03-05T05:40:59.102Z,100493.00
2023-03-05T05:43:32.418Z,100498.00
2023-03-05T05:46:10.059Z,100503.00
2023-03-05T05:48:43.369Z,100499.00
2023-03-05T05:51:23.108Z,100501.00
2023-03-05T05:53:56.342Z,100509.00
2023-03-05T05:56:29.611Z,100509.00
2023-03-05T05:59:02.623Z,100506.00
2023-03-05T06:01:36.982Z,100501.00
2023-03-05T06:04:09.897Z,100504.00
2023-03-05T06:06:42.916Z,100511.00
2023-03-05T06:09:18.099Z,100515.00
2023-03-05T06:11:50.076Z,100509.00
2023-03-05T06:14:23.430Z,100516.00
2023-03-05T06:16:56.846Z,100517.00
2023-03-05T06:19:30.026Z,100501.00
2023-03-05T06:22:07.911Z,100511.00
2023-03-05T06:24:42.377Z,100513.00
2023-03-05T06:27:15.323Z,100515.00
2023-03-05T06:29:48.570Z,100518.00
2023-03-05T06:32:21.652Z,100520.00
2023-03-05T06:34:54.706Z,100522.00
2023-03-05T06:37:27.786Z,100527.00
2023-03-05T06:40:00.683Z,100522.00
2023-03-05T06:42:33.710Z,100515.00
2023-03-05T06:45:06.774Z,100530.00
2023-03-05T06:47:39.896Z,100524.00
2023-03-05T06:50:13.415Z,100532.00
2023-03-05T06:52:46.830Z,100532.00
2023-03-05T06:55:20.061Z,100541.00
2023-03-05T06:57:53.274Z,100534.00
2023-03-05T07:00:28.305Z,100532.00
2023-03-05T07:03:01.322Z,100535.00
2023-03-05T07:05:34.620Z,100546.00
2023-03-05T07:08:07.761Z,100535.00
2023-03-05T07:10:47.834Z,100545.00
2023-03-05T07:13:20.876Z,100546.00
2023-03-05T07:15:54.527Z,100553.00
2023-03-05T07:18:27.682Z,100549.00
2023-03-05T07:21:01.618Z,100547.00
2023-03-05T07:23:34.942Z,100554.00
2023-03-05T07:26:08.745Z,100553.00
2023-03-05T07:28:41.931Z,100550.00
2023-03-05T07:31:16.803Z,100560.00
2023-03-05T07:33:51.011Z,100555.00
2023-03-05T07:36:24.062Z,100560.00
2023-03-05T07:38:57.494Z,100555.00
2023-03-05T07:41:30.691Z,100567.00
2023-03-05T07:44:03.963Z,100563.00
2023-03-05T07:46:38.276Z,100577.00
2023-03-05T07:49:11.401Z,100572.00
2023-03-05T07:51:45.412Z,100571.00
2023-03-05T07:54:18.373Z,100569.00
2023-03-05T07:56:51.491Z,100572.00
2023-03-05T07:59:24.735Z,100568.00
2023-03-05T08:01:58.000Z,100573.00
2023-03-05T08:04:32.107Z,100563.00
2023-03-05T08:07:05.410Z,100574.00
2023-03-05T08:09:38.268Z,100573.00
2023-03-05T08:12:12.354Z,100578.00
2023-03-05T08:14:45.542Z,100588.00
2023-03-05T08:17:18.690Z,100591.00
2023-03-05T08:19:51.830Z,100593.00
2023-03-05T08:22:24.683Z,100596.00
2023-03-05T08:24:58.408Z,100601.00
2023-03-05T08:27:31.421Z,100598.00
2023-03-05T08:30:05.534Z,100611.00
2023-03-05T08:32:38.609Z,100603.00
2023-03-05T08:35:12.282Z,100607.00
2023-03-05T08:37:45.600Z,100607.00
2023-03-05T08:40:19.880Z,100606.00
2023-03-05T08:42:53.834Z,100607.00
2023-03-05T08:45:26.696Z,100618.00
2023-03-05T08:47:59.981Z,100615.00
2023-03-05T08:50:33.125Z,100609.00
2023-03-05T08:53:06.082Z,100611.00
2023-03-05T08:55:39.504Z,100615.00
2023-03-05T08:58:12.511Z,100619.00
2023-03-05T09:00:48.926Z,100644.00
2023-03-05T09:03:22.131Z,100622.00
2023-03-05T09:05:55.097Z,100625.00
2023-03-05T09:08:27.959Z,100629.00
2023-03-05T09:11:01.025Z,100625.00
2023-03-05T09:13:34.109Z,100612.00
2023-03-05T09:16:09.361Z,100619.00
2023-03-05T09:18:42.559Z,100616.00
2023-03-05T09:21:18.001Z,100620.00
2023-03-05T09:23:51.056Z,100615.00
2023-03-05T09:26:24.288Z,100616.00
2023-03-05T09:28:57.453Z,100620.00
2023-03-05T09:31:30.518Z,100624.00
2023-03-05T09:34:03.841Z,100624.00
2023-03-05T09:36:39.787Z,100629.00
2023-03-05T09:39:12.833Z,100639.00
2023-03-05T09:41:50.819Z,100638.00
2023-03-05T09:44:26.015Z,100644.00
2023-03-05T09:47:00.960Z,100635.00
2023-03-05T09:49:56.599Z,100631.00
2023-03-05T09:52:31.760Z,100629.00
2023-03-05T09:55:05.071Z,100628.00
2023-03-05T09:57:45.639Z,100625.00
2023-03-05T10:00:39.955Z,100628.00
2023-03-05T10:03:20.512Z,100628.00
2023-03-05T10:06:04.075Z,100635.00
2023-03-05T10:08:39.221Z,100636.00
2023-03-05T10:11:18.347Z,100634.00
2023-03-05T10:13:52.612Z,100637.00
2023-03-05T10:16:47.125Z,100642.00
2023-03-05T10:19:44.547Z,100640.00
2023-03-05T10:22:25.421Z,100646.00
2023-03-05T10:25:03.716Z,100646.00
2023-03-05T10:27:41.460Z,100649.00
2023-03-05T10:30:41.111Z,100644.00
2023-03-05T10:33:18.406Z,100637.00
2023-03-05T10:36:13.405Z,100642.00
2023-03-05T10:38:51.372Z,100635.00
2023-03-05T10:41:32.156Z,100637.00
2023-03-05T10:44:07.037Z,100638.00
2023-03-05T10:46:42.121Z,100638.00
2023-03-05T10:49:39.748Z,100642.00
2023-03-05T10:52:15.071Z,100649.00
2023-03-05T10:54:48.491Z,100651.00
2023-03-05T10:57:29.272Z,100652.00
2023-03-05T11:00:13.547Z,100647.00
2023-03-05T11:03:00.578Z,100654.00
2023-03-05T11:05:53.214Z,100652.00
2023-03-05T11:08:39.847Z,100657.00
2023-03-05T11:11:17.898Z,100648.00
2023-03-05T11:14:10.615Z,100648.00
2023-03-05T11:16:53.411Z,100644.00
2023-03-05T11:19:38.660Z,100638.00
2023-03-05T11:22:25.134Z,100638.00
2023-03-05T11:25:22.325Z,100648.00
2023-03-05T11:27:57.709Z,100639.00
2023-03-05T11:30:32.653Z,100639.00
2023-03-05T11:33:22.821Z,100634.00
2023-03-05T11:35:57.598Z,100637.00
2023-03-05T11:38:35.933Z,100629.00
2023-03-05T11:41:08.938Z,100636.00
2023-03-05T11:43:44.524Z,100642.00
2023-03-05T11:46:20.849Z,100634.00
2023-03-05T11:48:54.082Z,100633.00
2023-03-05T11:51:31.343Z,100636.00
2023-03-05T11:54:06.137Z,100628.00
2023-03-05T11:56:51.256Z,100627.00
2023-03-05T11:59:35.184Z,100622.00
2023-03-05T12:02:09.999Z,100630.00
2023-03-05T12:04:42.851Z,100637.00
2023-03-05T12:07:17.554Z,100630.00
2023-03-05T12:09:54.797Z,100629.00
2023-03-05T12:12:41.525Z,100633.00
2023-03-05T12:15:33.285Z,100637.00
2023-03-05T12:18:14.230Z,100637.00
2023-03-05T12:21:12.040Z,100645.00
2023-03-05T12:23:59.957Z,100638.00
2023-03-05T12:27:06.805Z,100641.00
2023-03-05T12:29:53.690Z,100642.00
2023-03-05T12:32:31.837Z,100642.00
2023-03-05T12:35:27.694Z,100648.00
2023-03-05T12:38:06.211Z,100644.00
2023-03-05T12:40:37.749Z,100637.00
2023-03-05T12:43:12.484Z,100635.00
2023-03-05T12:45:47.315Z,100630.00
2023-03-05T12:48:22.387Z,100628.00
2023-03-05T12:50:56.909Z,100634.00
2023-03-05T12:53:29.765Z,100625.00
2023-03-05T12:56:12.608Z,100616.00
2023-03-05T12:58:47.730Z,100620.00
2023-03-05T13:01:37.591Z,100615.00
2023-03-05T13:04:13.326Z,100610.00
2023-03-05T13:06:46.482Z,100605.00
2023-03-05T13:09:23.992Z,100615.00
2023-03-05T13:11:58.580Z,100617.00
2023-03-05T13:14:42.620Z,100608.00
2023-03-05T13:17:35.762Z,100605.00
2023-03-05T13:20:27.049Z,100608.00
2023-03-05T13:23:17.394Z,100605.00
2023-03-05T13:25:52.016Z,100596.00
2023-03-05T13:28:25.387Z,100601.00
2023-03-05T13:30:59.973Z,100593.00
2023-03-05T13:33:35.166Z,100593.00
2023-03-05T13:36:08.737Z,100586.00
2023-03-05T13:38:47.570Z,100595.00
2023-03-05T13:41:28.221Z,100592.00
2023-03-05T13:44:03.422Z,100593.00
2023-03-05T13:46:38.267Z,100595.00
2023-03-05T13:49:31.053Z,100590.00
2023-03-05T13:52:04.816Z,100587.00
2023-03-05T13:54:37.857Z,100592.00
2023-03-05T13:57:11.755Z,100599.00
2023-03-05T13:59:44.666Z,100602.00
2023-03-05T14:02:27.691Z,100604.00
2023-03-05T14:05:01.257Z,100604.00
2023-03-05T14:07:44.998Z,100598.00
2023-03-05T14:10:38.318Z,100609.00
2023-03-05T14:13:19.343Z,100607.00
2023-03-05T14:16:16.856Z,100606.00
2023-03-05T14:19:00.757Z,100604.00
2023-03-05T14:21:50.945Z,100604.00
2023-03-05T14:24:29.739Z,100602.00
2023-03-05T14:27:19.169Z,100604.00
2023-03-05T14:29:52.485Z,100616.00
2023-03-05T14:32:32.948Z,100604.00
2023-03-05T14:35:07.142Z,100605.00
2023-03-05T14:37:43.367Z,100604.00
2023-03-05T14:40:21.793Z,100601.00
2023-03-05T14:43:05.842Z,100608.00
2023-03-05T14:45:46.358Z,100595.00
2023-03-05T14:48:20.972Z,100604.00
2023-03-05T14:51:00.896Z,100597.00
2023-03-05T14:53:38.534Z,100598.00
2023-03-05T14:56:13.654Z,100592.00
2023-03-05T14:58:46.901Z,100601.00
2023-03-05T15:01:20.325Z,100591.00
2023-03-05T15:03:53.290Z,100590.00
2023-03-05T15:06:31.142Z,100590.00
2023-03-05T15:09:05.867Z,100582.00
2023-03-05T15:11:39.045Z,100583.00
2023-03-05T15:14:12.715Z,100579.00
2023-03-05T15:16:47.164Z,100586.00
2023-03-05T15:19:20.264Z,100581.00
2023-03-05T15:21:53.661Z,100580.00
2023-03-05T15:24:26.485Z,100568.00
2023-03-05T15:26:59.436Z,100577.00
2023-03-05T15:29:32.639Z,100581.00
2023-03-05T15:32:06.811Z,100579.00
2023-03-05T15:34:39.690Z,100577.00
2023-03-05T15:37:12.679Z,100574.00
2023-03-05T15:39:45.688Z,100569.00
2023-03-05T15:42:18.687Z,100572.00
2023-03-05T15:44:51.703Z,100568.00
2023-03-05T15:47:24.544Z,100565.00
2023-03-05T15:49:57.666Z,100569.00
2023-03-05T15:52:31.397Z,100557.00
2023-03-05T15:55:05.298Z,100551.00
2023-03-05T15:57:40.118Z,100562.00
2023-03-05T16:00:14.304Z,100564.00
2023-03-05T16:02:47.172Z,100560.00
2023-03-05T16:05:20.537Z,100565.00
2023-03-05T16:07:54.638Z,100566.00
2023-03-05T16:10:32.132Z,100560.00
2023-03-05T16:13:06.964Z,100567.00
2023-03-05T16:15:41.832Z,100564.00
2023-03-05T16:18:17.624Z,100563.00
2023-03-05T16:20:50.601Z,100551.00
2023-03-05T16:23:26.469Z,100552.00
2023-03-05T16:25:59.910Z,100547.00
2023-03-05T16:28:36.911Z,100551.00
2023-03-05T16:31:10.125Z,100555.00
2023-03-05T16:33:43.039Z,100552.00
2023-03-05T16:36:17.827Z,100561.00
2023-03-05T16:38:51.683Z,100560.00
2023-03-05T16:41:25.772Z,100567.00
2023-03-05T16:43:59.395Z,100559.00
2023-03-05T16:46:35.060Z,100554.00
2023-03-05T16:49:08.289Z,100563.00
2023-03-05T16:51:41.463Z,100557.00
2023-03-05T16:54:14.431Z,100558.00
2023-03-05T16:56:47.567Z,100561.00
2023-03-05T16:59:20.320Z,100559.00
2023-03-05T17:01:53.420Z,100563.00
2023-03-05T17:04:26.878Z,100561.00
2023-03-05T17:07:00.595Z,100568.00
2023-03-05T17:09:33.885Z,100569.00
2023-03-05T17:12:07.470Z,100579.00
2023-03-05T17:14:40.663Z,100578.00
2023-03-05T17:17:13.428Z,100591.00
2023-03-05T17:19:46.631Z,100601.00
2023-03-05T17:22:21.351Z,100597.00
2023-03-05T17:24:53.794Z,100599.00
2023-03-05T17:27:26.795Z,100602.00
2023-03-05T17:30:00.164Z,100596.00
2023-03-05T17:32:34.152Z,100611.00
2023-03-05T17:35:07.316Z,100616.00
2023-03-05T17:37:40.343Z,100623.00
2023-03-05T17:40:15.010Z,100614.00
2023-03-05T17:42:48.005Z,100616.00
2023-03-05T17:45:21.280Z,100614.00
2023-03-05T17:47:55.877Z,100615.00
2023-03-05T17:50:29.197Z,100623.00
2023-03-05T17:53:02.269Z,100637.00
2023-03-05T17:55:35.610Z,100636.00
2023-03-05T17:58:08.760Z,100630.00
2023-03-05T18:00:41.810Z,100644.00
2023-03-05T18:03:15.048Z,100636.00
2023-03-05T18:05:48.043Z,100639.00
2023-03-05T18:08:21.089Z,100642.00
2023-03-05T18:10:54.705Z,100653.00
2023-03-05T18:13:27.861Z,100653.00
2023-03-05T18:16:02.399Z,100656.00
2023-03-05T18:18:35.647Z,100655.00
2023-03-05T18:21:08.763Z,100665.00
2023-03-05T18:23:41.654Z,100666.00
2023-03-05T18:26:14.642Z,100664.00
2023-03-05T18:28:47.644Z,100661.00
2023-03-05T18:31:20.780Z,100671.00
2023-03-05T18:33:58.035Z,100676.00
2023-03-05T18:36:31.535Z,100670.00
2023-03-05T18:39:04.692Z,100669.00
2023-03-05T18:41:37.639Z,100673.00
2023-03-05T18:44:11.040Z,100682.00
2023-03-05T18:46:44.211Z,100690.00
2023-03-05T18:49:17.534Z,100679.00
2023-03-05T18:51:50.685Z,100681.00
2023-03-05T18:54:23.848Z,100694.00
2023-03-05T18:56:56.851Z,100697.00
2023-03-05T18:59:31.189Z,100700.00
2023-03-05T19:02:04.283Z,100703.00
2023-03-05T19:04:37.480Z,100712.00
2023-03-05T19:07:10.702Z,100705.00
2023-03-05T19:10:01.634Z,100710.00
2023-03-05T19:12:36.187Z,100702.00
2023-03-05T19:15:10.839Z,100694.00
2023-03-05T19:17:43.698Z,100697.00
2023-03-05T19:20:18.036Z,100696.00
2023-03-05T19:22:52.010Z,100697.00
2023-03-05T19:25:25.265Z,100701.00
2023-03-05T19:28:03.338Z,100713.00
2023-03-05T19:30:36.405Z,100709.00
2023-03-05T19:33:09.793Z,100711.00
2023-03-05T19:35:43.733Z,100710.00
2023-03-05T19:38:16.828Z,100713.00
2023-03-05T19:40:50.581Z,100717.00
2023-03-05T19:43:23.464Z,100719.00
2023-03-05T19:45:56.669Z,100724.00
2023-03-05T19:48:29.768Z,100721.00
2023-03-05T19:51:02.658Z,100730.00
2023-03-05T19:53:35.783Z,100737.00
2023-03-05T19:56:09.192Z,100733.00
2023-03-05T19:58:43.805Z,100735.00
2023-03-05T20:01:18.181Z,100739.00
2023-03-05T20:03:55.618Z,100739.00
2023-03-05T20:06:29.467Z,100741.00
2023-03-05T20:09:03.480Z,100738.00
2023-03-05T20:11:36.365Z,100744.00
2023-03-05T20:14:09.927Z,100746.00
2023-03-05T20:16:42.890Z,100751.00
2023-03-05T20:19:18.188Z,100750.00
2023-03-05T20:21:51.413Z,100758.00
2023-03-05T20:24:24.361Z,100755.00
2023-03-05T20:26:57.090Z,100761.00
2023-03-05T20:29:30.180Z,100770.00
2023-03-05T20:32:06.813Z,100773.00
2023-03-05T20:34:40.095Z,100769.00
2023-03-05T20:37:13.073Z,100780.00
2023-03-05T20:39:46.076Z,100780.00
2023-03-05T20:42:19.097Z,100784.00
2023-03-05T20:44:52.530Z,100785.00
2023-03-05T20:47:26.929Z,100798.00
2023-03-05T20:50:00.522Z,100804.00
2023-03-05T20:52:33.555Z,100800.00
2023-03-05T20:55:06.609Z,100791.00
2023-03-05T20:57:39.619Z,100799.00
2023-03-05T21:00:14.146Z,100804.00
2023-03-05T21:02:47.194Z,100803.00
2023-03-05T21:05:21.489Z,100810.00
2023-03-05T21:07:55.086Z,100802.00
2023-03-05T21:10:28.679Z,100808.00
2023-03-05T21:13:01.905Z,100807.00
2023-03-05T21:15:35.187Z,100809.00
2023-03-05T21:18:08.084Z,100817.00
2023-03-05T21:20:41.594Z,100820.00
2023-03-05T21:23:16.940Z,100822.00
2023-03-05T21:25:49.811Z,100811.00
2023-03-05T21:28:23.019Z,100819.00
2023-03-05T21:30:57.366Z,100819.00
2023-03-05T21:33:36.561Z,100817.00
2023-03-05T21:36:12.898Z,100826.00
2023-03-05T21:38:46.077Z,100820.00
2023-03-05T21:41:19.920Z,100817.00
2023-03-05T21:43:52.979Z,100822.00
2023-03-05T21:46:25.984Z,100817.00
2023-03-05T21:48:59.046Z,100823.00
2023-03-05T21:51:33.228Z,100825.00
2023-03-05T21:54:07.113Z,100816.00
2023-03-05T21:56:42.629Z,100823.00
2023-03-05T21:59:15.691Z,100818.00
2023-03-05T22:01:52.028Z,100815.00
2023-03-05T22:04:24.075Z,100815.00
2023-03-05T22:06:57.085Z,100820.00
2023-03-05T22:09:30.004Z,100817.00
2023-03-05T22:12:03.035Z,100816.00
2023-03-05T22:14:35.864Z,100813.00
2023-03-05T22:17:11.193Z,100814.00
2023-03-05T22:19:44.096Z,100826.00
2023-03-05T22:22:19.496Z,100827.00
2023-03-05T22:24:52.575Z,100828.00
2023-03-05T22:27:25.632Z,100826.00
2023-03-05T22:29:58.546Z,100821.00
2023-03-05T22:32:31.865Z,100819.00
2023-03-05T22:35:05.048Z,100826.00
2023-03-05T22:37:38.581Z,100833.00
2023-03-05T22:40:13.797Z,100832.00
2023-03-05T22:42:46.787Z,100834.00
2023-03-05T22:45:20.828Z,100838.00
2023-03-05T22:47:54.429Z,100839.00
2023-03-05T22:50:27.512Z,100847.00
2023-03-05T22:53:00.595Z,100838.00
2023-03-05T22:55:33.660Z,100851.00
2023-03-05T22:58:06.676Z,100850.00
2023-03-05T23:00:39.581Z,100844.00
2023-03-05T23:03:12.687Z,100854.00
2023-03-05T23:05:48.170Z,100860.00
2023-03-05T23:08:21.133Z,100854.00
2023-03-05T23:10:54.137Z,100851.00
2023-03-05T23:13:27.269Z,100855.00
2023-03-05T23:16:00.365Z,100853.00
2023-03-05T23:18:33.255Z,100856.00
2023-03-05T23:21:06.407Z,100853.00
2023-03-05T23:23:39.619Z,100863.00
2023-03-05T23:26:12.594Z,100863.00
2023-03-05T23:28:45.550Z,100867.00
2023-03-05T23:31:19.953Z,100870.00
2023-03-05T23:33:53.098Z,100865.00
2023-03-05T23:36:29.993Z,100866.00
2023-03-05T23:39:02.810Z,100870.00
2023-03-05T23:41:35.907Z,100866.00
2023-03-05T23:44:08.959Z,100865.00
2023-03-05T23:46:42.311Z,100876.00
2023-03-05T23:49:15.525Z,100864.00
2023-03-05T23:51:48.424Z,100867.00
2023-03-05T23:54:21.439Z,100870.00
2023-03-05T23:56:54.350Z,100869.00
2023-03-05T23:59:27.387Z,100878.00
